sensor_id;sensor_type;location;lat;lon;timestamp;pressure;altitude;pressure_sealevel;temperature;humidity
62976;BME280;49071;0.000;0.000;2023-02-28T06:18:59;102496.34;;;17.22;37.64
62976;BME280;49071;0.000;0.000;2023-02-28T06:22:00;102494.34;;;17.40;37.70
62976;BME280;49071;0.000;0.000;2023-02-28T06:25:00;102501.28;;;17.42;37.66
62976;BME280;49071;0.000;0.000;2023-02-28T06:28:00;102498.59;;;17.47;37.61
62976;BME280;49071;0.000;0.000;2023-02-28T06:31:05;102515.22;;;17.46;37.14
62976;BME280;49071;0.000;0.000;2023-02-28T06:34:05;102510.84;;;17.46;37.00
62976;BME280;49071;0.000;0.000;2023-02-28T06:37:05;102516.94;;;17.47;36.98
62976;BME280;49071;0.000;0.000;2023-02-28T06:40:06;102510.00;;;17.44;37.09
62976;BME280;49071;0.000;0.000;2023-02-28T06:43:06;102517.03;;;17.42;37.22
62976;BME280;49071;0.000;0.000;2023-02-28T06:46:07;102521.41;;;17.42;37.53
62976;BME280;49071;0.000;0.000;2023-02-28T06:49:08;102520.56;;;17.40;37.53
62976;BME280;49071;0.000;0.000;2023-02-28T06:52:09;102524.09;;;17.37;37.56
62976;BME280;49071;0.000;0.000;2023-02-28T06:55:09;102531.13;;;17.35;37.63
62976;BME280;49071;0.000;0.000;2023-02-28T06:58:09;102525.06;;;17.30;37.34
62976;BME280;49071;0.000;0.000;2023-02-28T07:01:18;102538.22;;;17.27;37.76
62976;BME280;49071;0.000;0.000;2023-02-28T07:04:19;102526.78;;;17.31;37.51
62976;BME280;49071;0.000;0.000;2023-02-28T07:07:19;102541.53;;;17.41;37.48
62976;BME280;49071;0.000;0.000;2023-02-28T07:10:19;102534.50;;;17.43;37.31
62976;BME280;49071;0.000;0.000;2023-02-28T07:13:20;102540.56;;;17.49;37.29
62976;BME280;49071;0.000;0.000;2023-02-28T07:16:21;102539.47;;;17.60;36.93
62976;BME280;49071;0.000;0.000;2023-02-28T07:19:22;102538.41;;;17.74;37.00
62976;BME280;49071;0.000;0.000;2023-02-28T07:22:22;102540.72;;;17.93;36.53
62976;BME280;49071;0.000;0.000;2023-02-28T07:25:23;102527.41;;;18.06;36.78
62976;BME280;49071;0.000;0.000;2023-02-28T07:28:23;102533.97;;;18.28;36.29
62976;BME280;49071;0.000;0.000;2023-02-28T07:31:23;102529.13;;;18.52;36.25
62976;BME280;49071;0.000;0.000;2023-02-28T07:34:23;102538.63;;;18.60;36.24
62976;BME280;49071;0.000;0.000;2023-02-28T07:37:24;102537.53;;;18.71;36.35
62976;BME280;49071;0.000;0.000;2023-02-28T07:40:24;102540.81;;;18.83;36.12
62976;BME280;49071;0.000;0.000;2023-02-28T07:43:24;102542.19;;;19.01;35.99
62976;BME280;49071;0.000;0.000;2023-02-28T07:46:25;102548.97;;;19.11;36.10
62976;BME280;49071;0.000;0.000;2023-02-28T07:49:25;102548.00;;;19.16;35.79
62976;BME280;49071;0.000;0.000;2023-02-28T07:52:26;102550.03;;;19.03;36.02
62976;BME280;49071;0.000;0.000;2023-02-28T07:55:26;102548.44;;;18.96;35.95
62976;BME280;49071;0.000;0.000;2023-02-28T07:58:27;102547.69;;;18.89;35.82
62976;BME280;49071;0.000;0.000;2023-02-28T08:01:27;102547.78;;;18.84;35.94
62976;BME280;49071;0.000;0.000;2023-02-28T08:04:28;102551.44;;;18.77;35.99
62976;BME280;49071;0.000;0.000;2023-02-28T08:07:31;102544.50;;;18.75;35.94
62976;BME280;49071;0.000;0.000;2023-02-28T08:10:32;102551.34;;;18.82;35.86
62976;BME280;49071;0.000;0.000;2023-02-28T08:13:33;102552.88;;;18.92;36.08
62976;BME280;49071;0.000;0.000;2023-02-28T08:16:33;102543.94;;;19.01;35.68
62976;BME280;49071;0.000;0.000;2023-02-28T08:19:33;102551.56;;;19.13;35.47
62976;BME280;49071;0.000;0.000;2023-02-28T08:22:33;102549.66;;;19.20;35.63
62976;BME280;49071;0.000;0.000;2023-02-28T08:25:33;102556.44;;;19.30;34.89
62976;BME280;49071;0.000;0.000;2023-02-28T08:28:33;102543.13;;;19.38;34.99
62976;BME280;49071;0.000;0.000;2023-02-28T08:31:34;102545.59;;;19.44;35.11
62976;BME280;49071;0.000;0.000;2023-02-28T08:34:35;102547.22;;;19.51;34.76
62976;BME280;49071;0.000;0.000;2023-02-28T08:37:35;102551.44;;;19.56;34.77
62976;BME280;49071;0.000;0.000;2023-02-28T08:40:35;102549.56;;;19.62;34.12
62976;BME280;49071;0.000;0.000;2023-02-28T08:43:36;102548.66;;;19.63;34.25
62976;BME280;49071;0.000;0.000;2023-02-28T08:46:36;102549.59;;;19.60;34.40
62976;BME280;49071;0.000;0.000;2023-02-28T08:49:36;102546.16;;;19.56;34.10
62976;BME280;49071;0.000;0.000;2023-02-28T08:52:37;102543.66;;;19.52;34.24
62976;BME280;49071;0.000;0.000;2023-02-28T08:55:38;102548.16;;;19.47;34.25
62976;BME280;49071;0.000;0.000;2023-02-28T08:58:38;102546.56;;;19.41;34.40
62976;BME280;49071;0.000;0.000;2023-02-28T09:01:39;102558.94;;;19.36;34.13
62976;BME280;49071;0.000;0.000;2023-02-28T09:04:41;102554.72;;;19.29;34.45
62976;BME280;49071;0.000;0.000;2023-02-28T09:07:41;102550.50;;;19.20;34.28
62976;BME280;49071;0.000;0.000;2023-02-28T09:10:41;102550.66;;;19.14;34.68
62976;BME280;49071;0.000;0.000;2023-02-28T09:13:41;102542.06;;;19.07;34.66
62976;BME280;49071;0.000;0.000;2023-02-28T09:16:42;102547.47;;;19.00;34.96
62976;BME280;49071;0.000;0.000;2023-02-28T09:19:42;102551.97;;;18.93;34.79
62976;BME280;49071;0.000;0.000;2023-02-28T09:22:42;102543.34;;;18.86;34.59
62976;BME280;49071;0.000;0.000;2023-02-28T09:25:46;102539.13;;;18.79;34.81
62976;BME280;49071;0.000;0.000;2023-02-28T09:28:47;102547.06;;;18.78;34.58
62976;BME280;49071;0.000;0.000;2023-02-28T09:31:47;102547.84;;;18.81;34.60
62976;BME280;49071;0.000;0.000;2023-02-28T09:34:48;102534.66;;;18.83;34.85
62976;BME280;49071;0.000;0.000;2023-02-28T09:37:51;102539.00;;;18.85;34.68
62976;BME280;49071;0.000;0.000;2023-02-28T09:40:52;102528.41;;;18.90;34.77
62976;BME280;49071;0.000;0.000;2023-02-28T09:43:55;102542.31;;;18.95;34.95
62976;BME280;49071;0.000;0.000;2023-02-28T09:46:57;102543.94;;;19.01;34.66
62976;BME280;49071;0.000;0.000;2023-02-28T09:50:03;102547.25;;;19.09;34.56
62976;BME280;49071;0.000;0.000;2023-02-28T09:56:21;102545.41;;;19.14;34.59
62976;BME280;49071;0.000;0.000;2023-02-28T10:06:14;102545.78;;;18.97;34.39
62976;BME280;49071;0.000;0.000;2023-02-28T10:09:17;102547.53;;;18.97;34.55
62976;BME280;49071;0.000;0.000;2023-02-28T10:12:20;102557.22;;;18.95;34.62
62976;BME280;49071;0.000;0.000;2023-02-28T10:15:22;102547.63;;;18.94;34.84
62976;BME280;49071;0.000;0.000;2023-02-28T10:18:25;102545.13;;;18.86;34.50
62976;BME280;49071;0.000;0.000;2023-02-28T10:21:28;102537.44;;;18.77;34.73
62976;BME280;49071;0.000;0.000;2023-02-28T10:27:34;102541.63;;;18.85;34.87
62976;BME280;49071;0.000;0.000;2023-02-28T10:30:34;102528.75;;;18.73;34.80
62976;BME280;49071;0.000;0.000;2023-02-28T10:33:36;102534.13;;;18.65;35.15
62976;BME280;49071;0.000;0.000;2023-02-28T10:36:37;102529.06;;;18.56;35.33
62976;BME280;49071;0.000;0.000;2023-02-28T10:39:42;102530.09;;;18.48;35.15
62976;BME280;49071;0.000;0.000;2023-02-28T10:42:42;102525.03;;;18.38;35.09
62976;BME280;49071;0.000;0.000;2023-02-28T10:49:01;102525.97;;;18.34;35.12
62976;BME280;49071;0.000;0.000;2023-02-28T10:52:03;102520.78;;;18.33;35.14
62976;BME280;49071;0.000;0.000;2023-02-28T10:55:23;102520.72;;;18.36;35.29
62976;BME280;49071;0.000;0.000;2023-02-28T10:58:24;102520.50;;;18.47;35.23
62976;BME280;49071;0.000;0.000;2023-02-28T11:07:29;102521.72;;;18.74;34.66
62976;BME280;49071;0.000;0.000;2023-02-28T11:10:30;102525.06;;;18.82;34.33
62976;BME280;49071;0.000;0.000;2023-02-28T11:13:35;102520.47;;;18.92;34.10
62976;BME280;49071;0.000;0.000;2023-02-28T11:16:37;102524.63;;;19.02;34.17
62976;BME280;49071;0.000;0.000;2023-02-28T11:19:39;102522.78;;;19.05;34.17
62976;BME280;49071;0.000;0.000;2023-02-28T11:22:42;102520.78;;;19.17;33.69
62976;BME280;49071;0.000;0.000;2023-02-28T11:25:46;102525.03;;;19.24;33.72
62976;BME280;49071;0.000;0.000;2023-02-28T11:28:47;102524.06;;;19.28;33.85
62976;BME280;49071;0.000;0.000;2023-02-28T11:32:00;102518.81;;;19.26;33.96
62976;BME280;49071;0.000;0.000;2023-02-28T11:38:12;102528.59;;;19.21;33.75
62976;BME280;49071;0.000;0.000;2023-02-28T11:47:47;102519.25;;;19.06;34.11
62976;BME280;49071;0.000;0.000;2023-02-28T11:57:34;102501.34;;;18.85;34.37
62976;BME280;49071;0.000;0.000;2023-02-28T12:00:55;102495.41;;;18.75;34.24
62976;BME280;49071;0.000;0.000;2023-02-28T12:10:57;102480.13;;;18.49;34.82
62976;BME280;49071;0.000;0.000;2023-02-28T12:14:25;102479.34;;;18.46;34.83
62976;BME280;49071;0.000;0.000;2023-02-28T12:17:24;102468.06;;;18.39;34.95
62976;BME280;49071;0.000;0.000;2023-02-28T12:20:37;102466.34;;;18.39;35.02
62976;BME280;49071;0.000;0.000;2023-02-28T12:26:59;102465.31;;;18.47;34.79
62976;BME280;49071;0.000;0.000;2023-02-28T12:33:03;102448.47;;;18.57;34.80
62976;BME280;49071;0.000;0.000;2023-02-28T12:36:05;102436.91;;;18.64;34.55
62976;BME280;49071;0.000;0.000;2023-02-28T12:39:14;102437.63;;;18.74;34.20
62976;BME280;49071;0.000;0.000;2023-02-28T12:42:24;102431.31;;;18.81;34.22
62976;BME280;49071;0.000;0.000;2023-02-28T12:45:44;102434.59;;;18.91;34.00
62976;BME280;49071;0.000;0.000;2023-02-28T12:48:55;102421.22;;;19.01;34.18
62976;BME280;49071;0.000;0.000;2023-02-28T12:51:56;102420.22;;;19.05;34.09
62976;BME280;49071;0.000;0.000;2023-02-28T13:01:34;102415.41;;;19.24;33.40
62976;BME280;49071;0.000;0.000;2023-02-28T13:11:01;102406.16;;;19.08;33.80
62976;BME280;49071;0.000;0.000;2023-02-28T13:14:02;102408.91;;;19.02;33.91
62976;BME280;49071;0.000;0.000;2023-02-28T13:17:09;102410.81;;;18.95;33.91
62976;BME280;49071;0.000;0.000;2023-02-28T13:20:48;102403.13;;;18.87;33.83
62976;BME280;49071;0.000;0.000;2023-02-28T13:23:56;102407.72;;;18.78;33.79
62976;BME280;49071;0.000;0.000;2023-02-28T13:30:01;102397.56;;;18.59;34.27
62976;BME280;49071;0.000;0.000;2023-02-28T13:42:35;102409.63;;;18.29;34.83
62976;BME280;49071;0.000;0.000;2023-02-28T13:45:37;102406.19;;;18.26;34.89
62976;BME280;49071;0.000;0.000;2023-02-28T13:48:39;102405.31;;;18.25;34.76
62976;BME280;49071;0.000;0.000;2023-02-28T13:51:47;102400.84;;;18.30;35.04
62976;BME280;49071;0.000;0.000;2023-02-28T14:04:40;102394.16;;;18.56;34.71
62976;BME280;49071;0.000;0.000;2023-02-28T14:07:48;102395.59;;;18.69;34.68
62976;BME280;49071;0.000;0.000;2023-02-28T14:11:03;102393.66;;;18.80;34.55
62976;BME280;49071;0.000;0.000;2023-02-28T14:14:04;102398.53;;;18.96;34.30
62976;BME280;49071;0.000;0.000;2023-02-28T14:17:05;102390.50;;;19.02;33.89
62976;BME280;49071;0.000;0.000;2023-02-28T14:20:13;102385.19;;;19.05;33.93
62976;BME280;49071;0.000;0.000;2023-02-28T14:36:33;102376.06;;;18.82;34.48
62976;BME280;49071;0.000;0.000;2023-02-28T14:39:36;102372.69;;;18.77;34.47
62976;BME280;49071;0.000;0.000;2023-02-28T14:42:37;102366.66;;;18.72;34.65
62976;BME280;49071;0.000;0.000;2023-02-28T14:45:41;102369.41;;;18.66;34.75
62976;BME280;49071;0.000;0.000;2023-02-28T14:48:41;102369.56;;;18.58;34.94
62976;BME280;49071;0.000;0.000;2023-02-28T14:51:44;102368.06;;;18.48;35.01
62976;BME280;49071;0.000;0.000;2023-02-28T14:54:54;102366.47;;;18.41;35.15
62976;BME280;49071;0.000;0.000;2023-02-28T14:57:56;102362.25;;;18.32;34.86
62976;BME280;49071;0.000;0.000;2023-02-28T15:00:57;102359.81;;;18.25;34.98
62976;BME280;49071;0.000;0.000;2023-02-28T15:04:02;102365.06;;;18.25;35.39
62976;BME280;49071;0.000;0.000;2023-02-28T15:07:07;102356.31;;;18.24;35.41
62976;BME280;49071;0.000;0.000;2023-02-28T15:10:13;102365.03;;;18.26;35.20
62976;BME280;49071;0.000;0.000;2023-02-28T15:13:15;102356.19;;;18.30;35.45
62976;BME280;49071;0.000;0.000;2023-02-28T15:19:26;102354.22;;;18.40;35.31
62976;BME280;49071;0.000;0.000;2023-02-28T15:22:30;102355.78;;;18.49;35.09
62976;BME280;49071;0.000;0.000;2023-02-28T15:25:33;102346.84;;;18.56;34.98
62976;BME280;49071;0.000;0.000;2023-02-28T15:28:33;102349.28;;;18.65;35.15
62976;BME280;49071;0.000;0.000;2023-02-28T15:31:35;102349.03;;;18.77;34.81
62976;BME280;49071;0.000;0.000;2023-02-28T15:34:40;102346.97;;;18.90;34.42
62976;BME280;49071;0.000;0.000;2023-02-28T15:37:45;102356.31;;;19.02;34.51
62976;BME280;49071;0.000;0.000;2023-02-28T15:40:53;102351.00;;;19.05;34.16
62976;BME280;49071;0.000;0.000;2023-02-28T15:44:16;102355.38;;;19.04;34.11
62976;BME280;49071;0.000;0.000;2023-02-28T15:47:21;102357.22;;;19.01;34.42
62976;BME280;49071;0.000;0.000;2023-02-28T15:50:21;102357.41;;;18.93;34.51
62976;BME280;49071;0.000;0.000;2023-02-28T15:53:23;102357.50;;;18.88;34.49
62976;BME280;49071;0.000;0.000;2023-02-28T15:56:25;102359.44;;;18.82;34.65
62976;BME280;49071;0.000;0.000;2023-02-28T15:59:27;102353.44;;;18.75;34.56
62976;BME280;49071;0.000;0.000;2023-02-28T16:05:31;102352.91;;;18.59;34.23
62976;BME280;49071;0.000;0.000;2023-02-28T16:08:31;102359.19;;;18.54;34.56
62976;BME280;49071;0.000;0.000;2023-02-28T16:11:32;102350.59;;;18.46;34.82
62976;BME280;49071;0.000;0.000;2023-02-28T16:14:33;102357.78;;;18.37;34.56
62976;BME280;49071;0.000;0.000;2023-02-28T16:17:37;102361.44;;;18.30;34.87
62976;BME280;49071;0.000;0.000;2023-02-28T16:20:38;102366.75;;;18.27;35.05
62976;BME280;49071;0.000;0.000;2023-02-28T16:23:38;102366.75;;;18.27;35.19
62976;BME280;49071;0.000;0.000;2023-02-28T16:26:39;102361.44;;;18.30;34.70
62976;BME280;49071;0.000;0.000;2023-02-28T16:29:40;102361.34;;;18.35;34.99
62976;BME280;49071;0.000;0.000;2023-02-28T16:32:40;102367.38;;;18.40;34.76
62976;BME280;49071;0.000;0.000;2023-02-28T16:35:40;102358.50;;;18.44;35.00
62976;BME280;49071;0.000;0.000;2023-02-28T16:38:40;102356.56;;;18.54;34.75
62976;BME280;49071;0.000;0.000;2023-02-28T16:41:41;102359.91;;;18.60;34.48
62976;BME280;49071;0.000;0.000;2023-02-28T16:44:43;102363.25;;;18.67;34.45
62976;BME280;49071;0.000;0.000;2023-02-28T16:47:43;102366.56;;;18.77;34.18
62976;BME280;49071;0.000;0.000;2023-02-28T16:50:43;102367.19;;;18.86;34.36
62976;BME280;49071;0.000;0.000;2023-02-28T16:53:44;102369.53;;;18.99;33.93
62976;BME280;49071;0.000;0.000;2023-02-28T16:56:46;102365.00;;;19.05;33.89
62976;BME280;49071;0.000;0.000;2023-02-28T16:59:47;102369.34;;;19.06;33.99
62976;BME280;49071;0.000;0.000;2023-02-28T17:02:47;102372.03;;;19.05;34.24
62976;BME280;49071;0.000;0.000;2023-02-28T17:05:48;102362.50;;;19.01;34.45
62976;BME280;49071;0.000;0.000;2023-02-28T17:08:48;102368.75;;;18.95;34.07
62976;BME280;49071;0.000;0.000;2023-02-28T17:11:49;102361.06;;;18.87;34.70
62976;BME280;49071;0.000;0.000;2023-02-28T17:14:49;102363.81;;;18.81;34.02
62976;BME280;49071;0.000;0.000;2023-02-28T17:17:49;102369.22;;;18.75;33.93
62976;BME280;49071;0.000;0.000;2023-02-28T17:20:50;102366.75;;;18.68;34.21
62976;BME280;49071;0.000;0.000;2023-02-28T17:23:50;102374.75;;;18.61;34.10
62976;BME280;49071;0.000;0.000;2023-02-28T17:26:50;102367.97;;;18.53;34.45
62976;BME280;49071;0.000;0.000;2023-02-28T17:29:50;102376.84;;;18.46;34.19
62976;BME280;49071;0.000;0.000;2023-02-28T17:32:51;102370.00;;;18.38;34.11
62976;BME280;49071;0.000;0.000;2023-02-28T17:35:51;102373.59;;;18.34;34.67
62976;BME280;49071;0.000;0.000;2023-02-28T17:38:51;102380.63;;;18.34;34.72
62976;BME280;49071;0.000;0.000;2023-02-28T17:41:53;102374.41;;;18.38;34.63
62976;BME280;49071;0.000;0.000;2023-02-28T17:44:53;102369.09;;;18.41;34.68
62976;BME280;49071;0.000;0.000;2023-02-28T17:47:53;102375.97;;;18.47;34.28
62976;BME280;49071;0.000;0.000;2023-02-28T17:50:53;102377.59;;;18.52;34.74
62976;BME280;49071;0.000;0.000;2023-02-28T17:53:54;102373.91;;;18.59;33.93
62976;BME280;49071;0.000;0.000;2023-02-28T17:56:54;102376.41;;;18.67;33.67
62976;BME280;49071;0.000;0.000;2023-02-28T17:59:54;102376.31;;;18.73;34.21
62976;BME280;49071;0.000;0.000;2023-02-28T18:02:54;102374.34;;;18.81;33.83
62976;BME280;49071;0.000;0.000;2023-02-28T18:05:54;102370.59;;;18.92;33.74
62976;BME280;49071;0.000;0.000;2023-02-28T18:08:56;102379.94;;;19.03;34.03
62976;BME280;49071;0.000;0.000;2023-02-28T18:11:56;102385.03;;;19.11;33.57
62976;BME280;49071;0.000;0.000;2023-02-28T18:14:57;102384.88;;;19.17;33.18
62976;BME280;49071;0.000;0.000;2023-02-28T18:17:57;102387.53;;;19.17;33.22
62976;BME280;49071;0.000;0.000;2023-02-28T18:20:57;102390.16;;;19.16;33.60
62976;BME280;49071;0.000;0.000;2023-02-28T18:23:57;102396.41;;;19.11;33.53
62976;BME280;49071;0.000;0.000;2023-02-28T18:26:57;102399.25;;;19.04;33.67
62976;BME280;49071;0.000;0.000;2023-02-28T18:29:58;102402.00;;;18.98;33.80
62976;BME280;49071;0.000;0.000;2023-02-28T18:32:58;102410.03;;;18.92;33.19
62976;BME280;49071;0.000;0.000;2023-02-28T18:35:59;102402.34;;;18.84;33.36
62976;BME280;49071;0.000;0.000;2023-02-28T18:38:59;102400.75;;;18.77;33.61
62976;BME280;49071;0.000;0.000;2023-02-28T18:41:59;102399.13;;;18.70;33.43
62976;BME280;49071;0.000;0.000;2023-02-28T18:44:59;102404.59;;;18.60;33.50
62976;BME280;49071;0.000;0.000;2023-02-28T18:47:59;102399.53;;;18.51;33.82
62976;BME280;49071;0.000;0.000;2023-02-28T18:51:09;102410.16;;;18.45;33.74
62976;BME280;49071;0.000;0.000;2023-02-28T18:54:10;102411.19;;;18.39;34.11
62976;BME280;49071;0.000;0.000;2023-02-28T18:57:10;102414.69;;;18.38;33.88
62976;BME280;49071;0.000;0.000;2023-02-28T19:00:11;102412.91;;;18.40;33.85
62976;BME280;49071;0.000;0.000;2023-02-28T19:03:12;102408.44;;;18.44;34.08
62976;BME280;49071;0.000;0.000;2023-02-28T19:06:12;102407.47;;;18.48;34.06
62976;BME280;49071;0.000;0.000;2023-02-28T19:09:12;102404.75;;;18.53;33.96
62976;BME280;49071;0.000;0.000;2023-02-28T19:12:13;102405.47;;;18.59;34.19
62976;BME280;49071;0.000;0.000;2023-02-28T19:15:14;102410.59;;;18.65;33.98
62976;BME280;49071;0.000;0.000;2023-02-28T19:18:14;102418.34;;;18.73;33.63
62976;BME280;49071;0.000;0.000;2023-02-28T19:21:15;102417.34;;;18.79;33.80
62976;BME280;49071;0.000;0.000;2023-02-28T19:24:16;102401.41;;;18.85;33.46
62976;BME280;49071;0.000;0.000;2023-02-28T19:27:17;102400.50;;;18.87;32.96
62976;BME280;49071;0.000;0.000;2023-02-28T19:30:18;102402.91;;;18.97;33.00
62976;BME280;49071;0.000;0.000;2023-02-28T19:33:19;102400.97;;;19.05;32.72
62976;BME280;49071;0.000;0.000;2023-02-28T19:36:19;102404.16;;;19.18;33.47
62976;BME280;49071;0.000;0.000;2023-02-28T19:39:20;102404.81;;;19.26;33.10
62976;BME280;49071;0.000;0.000;2023-02-28T19:42:20;102403.75;;;19.34;33.65
62976;BME280;49071;0.000;0.000;2023-02-28T19:45:20;102396.72;;;19.35;33.36
62976;BME280;49071;0.000;0.000;2023-02-28T19:48:21;102393.31;;;19.30;33.16
62976;BME280;49071;0.000;0.000;2023-02-28T19:51:25;102394.22;;;19.29;34.09
62976;BME280;49071;0.000;0.000;2023-02-28T19:54:26;102396.94;;;19.26;33.89
62976;BME280;49071;0.000;0.000;2023-02-28T19:57:26;102394.56;;;19.15;33.53
62976;BME280;49071;0.000;0.000;2023-02-28T20:00:27;102392.13;;;19.07;33.66
62976;BME280;49071;0.000;0.000;2023-02-28T20:03:27;102388.75;;;19.02;34.03
62976;BME280;49071;0.000;0.000;2023-02-28T20:06:27;102397.66;;;18.97;34.00
62976;BME280;49071;0.000;0.000;2023-02-28T20:09:29;102389.84;;;18.92;34.04
62976;BME280;49071;0.000;0.000;2023-02-28T20:12:30;102393.53;;;18.85;34.14
62976;BME280;49071;0.000;0.000;2023-02-28T20:15:31;102398.97;;;18.77;34.27
62976;BME280;49071;0.000;0.000;2023-02-28T20:18:32;102399.13;;;18.70;34.63
62976;BME280;49071;0.000;0.000;2023-02-28T20:21:32;102400.13;;;18.64;34.31
62976;BME280;49071;0.000;0.000;2023-02-28T20:24:32;102399.34;;;18.59;34.55
62976;BME280;49071;0.000;0.000;2023-02-28T20:27:33;102400.38;;;18.53;34.30
62976;BME280;49071;0.000;0.000;2023-02-28T20:30:34;102392.56;;;18.49;34.96
62976;BME280;49071;0.000;0.000;2023-02-28T20:33:34;102384.78;;;18.44;34.91
62976;BME280;49071;0.000;0.000;2023-02-28T20:36:34;102390.97;;;18.41;34.94
62976;BME280;49071;0.000;0.000;2023-02-28T20:39:34;102386.56;;;18.42;34.96
62976;BME280;49071;0.000;0.000;2023-02-28T20:42:35;102377.81;;;18.43;34.93
62976;BME280;49071;0.000;0.000;2023-02-28T20:45:35;102380.34;;;18.48;35.11
62976;BME280;49071;0.000;0.000;2023-02-28T20:48:35;102383.88;;;18.45;34.93
62976;BME280;49071;0.000;0.000;2023-02-28T20:51:35;102388.31;;;18.43;34.60
62976;BME280;49071;0.000;0.000;2023-02-28T20:54:39;102388.16;;;18.49;34.75
